Time;durP1;ratioP1;P1;durP2;ratioP2;P2;SDS_P1;SDS_P2;PMS_P1;PMS_P2;Temp;Humidity;BMP_temperature;BMP_pressure;BME280_temperature;BME280_humidity;BME280_pressure;Samples;Min_cycle;Max_cycle;Signal;HPM_P1;HPM_P2
2022/09/14 00:00:50;;;;;;;;;;;19.30;99.90;;;;;;5046810;28;20202;-63
2022/09/14 00:03:38;;;;;;;;;;;19.10;99.90;;;;;;5045525;28;20180;-63
2022/09/14 00:06:06;;;;;;;;;;;19.10;99.90;;;;;;5051848;28;25089;-62
2022/09/14 00:08:34;;;;;;;;;;;19.10;99.90;;;;;;5051388;28;20066;-63
2022/09/14 00:11:05;;;;;;;;;;;19.10;99.90;;;;;;5051560;28;20278;-63
2022/09/14 00:13:33;;;;;;;;;;;19.20;99.90;;;;;;5051788;28;20302;-63
2022/09/14 00:16:05;;;;;;;;;;;19.50;99.90;;;;;;5052436;28;20651;-63
2022/09/14 00:18:33;;;;;;;;;;;19.60;99.90;;;;;;5050803;28;20094;-63
2022/09/14 00:21:01;;;;;;;;;;;19.50;99.90;;;;;;5051173;28;20191;-63
2022/09/14 00:23:29;;;;;;;;;;;19.50;99.90;;;;;;5051316;28;20235;-63
2022/09/14 00:26:02;;;;;;;;;;;19.50;99.90;;;;;;5052424;28;20194;-62
2022/09/14 00:28:31;;;;;;;;;;;19.70;99.90;;;;;;5051093;28;20197;-62
2022/09/14 00:30:59;;;;;;;;;;;19.80;99.90;;;;;;5051917;28;20257;-63
2022/09/14 00:33:26;;;;;;;;;;;19.80;99.90;;;;;;5051445;28;20574;-62
2022/09/14 00:35:54;;;;;;;;;;;19.80;99.90;;;;;;5052278;28;20216;-63
2022/09/14 00:38:22;;;;;;;;;;;19.90;99.90;;;;;;5050924;28;20206;-62
2022/09/14 00:40:56;;;;;;;;;;;20.00;99.90;;;;;;5051342;28;20220;-63
2022/09/14 00:43:24;;;;;;;;;;;19.80;99.90;;;;;;5050860;28;20694;-63
2022/09/14 00:45:53;;;;;;;;;;;19.60;99.90;;;;;;5052237;28;20214;-63
2022/09/14 00:48:23;;;;;;;;;;;19.40;99.90;;;;;;5047156;28;20219;-63
2022/09/14 00:50:52;;;;;;;;;;;19.20;99.90;;;;;;5045529;28;20722;-64
2022/09/14 00:53:19;;;;;;;;;;;19.10;99.90;;;;;;5046338;28;20196;-63
2022/09/14 00:55:47;;;;;;;;;;;19.20;99.90;;;;;;5046318;28;20078;-63
2022/09/14 00:58:15;;;;;;;;;;;19.30;99.90;;;;;;5046732;28;25079;-63
2022/09/14 01:00:43;;;;;;;;;;;19.50;99.90;;;;;;5045034;28;20205;-63
2022/09/14 01:03:12;;;;;;;;;;;19.70;99.90;;;;;;5045786;28;20230;-64
2022/09/14 01:05:58;;;;;;;;;;;19.90;99.90;;;;;;5046719;28;20291;-65
2022/09/14 01:08:31;;;;;;;;;;;19.90;99.90;;;;;;5066571;22;20153;-62
2022/09/14 01:11:07;;;;;;;;;;;20.10;99.90;;;;;;5016604;28;20683;-61
2022/09/14 01:13:41;;;;;;;;;;;20.10;99.90;;;;;;5015998;28;25061;-61
2022/09/14 01:16:20;;;;;;;;;;;20.20;99.90;;;;;;5017509;28;20084;-62
2022/09/14 01:18:51;;;;;;;;;;;20.10;99.90;;;;;;5011323;28;20757;-61
2022/09/14 01:21:20;;;;;;;;;;;20.00;99.90;;;;;;5003038;28;25076;-62
2022/09/14 01:23:54;;;;;;;;;;;20.00;99.90;;;;;;5003822;28;20096;-62
2022/09/14 01:26:39;;;;;;;;;;;20.10;99.90;;;;;;5004754;28;20243;-62
2022/09/14 01:29:12;;;;;;;;;;;20.00;99.90;;;;;;5005134;28;20353;-60
2022/09/14 01:31:45;;;;;;;;;;;19.90;99.90;;;;;;5004145;28;25088;-62
2022/09/14 01:34:15;;;;;;;;;;;19.80;99.90;;;;;;5005624;28;20114;-60
2022/09/14 01:36:46;;;;;;;;;;;19.90;99.90;;;;;;5004080;28;20827;-62
2022/09/14 01:39:14;;;;;;;;;;;20.00;99.90;;;;;;5005047;28;20073;-62
2022/09/14 01:41:42;;;;;;;;;;;19.90;99.90;;;;;;5004597;28;20221;-61
2022/09/14 01:44:15;;;;;;;;;;;19.90;99.90;;;;;;5005406;28;20666;-62
2022/09/14 01:46:44;;;;;;;;;;;20.00;99.90;;;;;;5005615;28;20158;-62
2022/09/14 01:49:14;;;;;;;;;;;20.20;99.90;;;;;;5004972;28;21666;-62
2022/09/14 01:51:44;;;;;;;;;;;20.30;99.90;;;;;;5005162;28;20230;-62
2022/09/14 01:54:16;;;;;;;;;;;20.30;99.90;;;;;;5004124;28;20641;-61
2022/09/14 01:56:48;;;;;;;;;;;20.30;99.90;;;;;;5004377;28;20221;-64
2022/09/14 01:59:19;;;;;;;;;;;20.30;99.90;;;;;;5003086;28;20112;-62
2022/09/14 02:01:49;;;;;;;;;;;20.40;99.90;;;;;;5004646;28;20211;-62
2022/09/14 02:04:22;;;;;;;;;;;20.30;99.90;;;;;;5003601;28;20683;-61
2022/09/14 02:06:50;;;;;;;;;;;20.10;99.90;;;;;;5004179;28;20251;-62
2022/09/14 02:09:20;;;;;;;;;;;19.90;99.90;;;;;;5003988;28;25177;-61
2022/09/14 02:11:47;;;;;;;;;;;19.80;99.90;;;;;;5002178;28;20733;-61
2022/09/14 02:14:16;;;;;;;;;;;19.90;99.90;;;;;;5002928;28;20222;-61
2022/09/14 02:16:45;;;;;;;;;;;19.80;99.90;;;;;;5006785;28;20483;-61
2022/09/14 02:19:13;;;;;;;;;;;19.70;99.90;;;;;;5011488;28;20221;-62
2022/09/14 02:21:41;;;;;;;;;;;19.80;99.90;;;;;;5014482;28;20187;-61
2022/09/14 02:24:09;;;;;;;;;;;19.80;99.90;;;;;;5018187;28;25133;-62
2022/09/14 02:26:38;;;;;;;;;;;19.70;99.90;;;;;;5011014;28;20074;-62
2022/09/14 02:29:05;;;;;;;;;;;19.80;99.90;;;;;;5023012;28;20158;-61
2022/09/14 02:31:41;;;;;;;;;;;19.90;99.90;;;;;;5009331;28;20301;-62
2022/09/14 02:34:11;;;;;;;;;;;19.80;99.90;;;;;;5010504;28;20444;-62
2022/09/14 02:36:45;;;;;;;;;;;19.80;99.90;;;;;;5011084;28;20295;-62
2022/09/14 02:39:16;;;;;;;;;;;19.80;99.90;;;;;;5014117;28;20405;-61
2022/09/14 02:41:47;;;;;;;;;;;19.70;99.90;;;;;;5010669;28;20700;-62
2022/09/14 02:44:18;;;;;;;;;;;19.80;99.90;;;;;;5008440;28;20703;-62
2022/09/14 02:46:54;;;;;;;;;;;19.70;99.90;;;;;;5005887;28;20504;-61
2022/09/14 02:49:27;;;;;;;;;;;19.60;99.90;;;;;;5006912;28;20839;-62
2022/09/14 02:51:58;;;;;;;;;;;19.60;99.90;;;;;;5007376;28;20640;-61
2022/09/14 02:54:29;;;;;;;;;;;19.50;99.90;;;;;;5006529;28;20715;-61
2022/09/14 02:56:59;;;;;;;;;;;19.60;99.90;;;;;;5007618;28;25087;-62
2022/09/14 02:59:27;;;;;;;;;;;19.70;99.90;;;;;;5005634;28;20390;-60
2022/09/14 03:01:56;;;;;;;;;;;19.70;99.90;;;;;;5006010;28;20632;-61
2022/09/14 03:04:24;;;;;;;;;;;19.70;99.90;;;;;;5006566;28;20759;-61
2022/09/14 03:06:51;;;;;;;;;;;19.70;99.90;;;;;;5006726;28;25143;-61
2022/09/14 03:09:19;;;;;;;;;;;19.70;99.90;;;;;;5007100;28;20635;-61
2022/09/14 03:11:47;;;;;;;;;;;19.60;99.90;;;;;;5007205;28;21162;-61
2022/09/14 03:14:14;;;;;;;;;;;19.60;99.90;;;;;;5006349;28;20421;-62
2022/09/14 03:16:42;;;;;;;;;;;19.60;99.90;;;;;;5003942;28;25145;-62
2022/09/14 03:19:12;;;;;;;;;;;19.70;99.90;;;;;;5007393;28;20516;-62
2022/09/14 03:21:39;;;;;;;;;;;19.70;99.90;;;;;;5006109;28;20600;-62
2022/09/14 03:24:07;;;;;;;;;;;19.70;99.90;;;;;;5007018;28;20906;-62
2022/09/14 03:26:37;;;;;;;;;;;19.70;99.90;;;;;;5013223;28;20238;-61
2022/09/14 03:29:06;;;;;;;;;;;19.70;99.90;;;;;;5016849;28;20213;-62
2022/09/14 03:31:33;;;;;;;;;;;19.80;99.90;;;;;;5019647;28;20556;-62
2022/09/14 03:34:02;;;;;;;;;;;19.90;99.90;;;;;;5009498;28;20247;-62
2022/09/14 03:36:31;;;;;;;;;;;20.00;99.90;;;;;;5014061;28;20230;-62
2022/09/14 03:39:00;;;;;;;;;;;20.00;99.90;;;;;;5008586;28;20221;-61
2022/09/14 03:41:28;;;;;;;;;;;19.80;99.90;;;;;;5008380;28;20694;-62
2022/09/14 03:43:56;;;;;;;;;;;19.80;99.90;;;;;;5005178;28;20211;-60
2022/09/14 03:46:24;;;;;;;;;;;19.80;99.90;;;;;;5004799;28;20128;-63
2022/09/14 03:48:53;;;;;;;;;;;19.80;99.90;;;;;;5005863;28;20253;-61
2022/09/14 03:51:21;;;;;;;;;;;19.90;99.90;;;;;;5008399;28;20637;-64
2022/09/14 03:53:50;;;;;;;;;;;19.90;99.90;;;;;;5011451;28;25121;-62
2022/09/14 03:56:19;;;;;;;;;;;20.00;99.90;;;;;;5010780;28;20793;-63
2022/09/14 03:58:48;;;;;;;;;;;19.80;99.90;;;;;;5010632;28;20095;-63
2022/09/14 04:01:17;;;;;;;;;;;19.80;99.90;;;;;;5015543;28;25097;-63
2022/09/14 04:03:45;;;;;;;;;;;20.00;99.90;;;;;;5008880;28;20519;-62
2022/09/14 04:06:14;;;;;;;;;;;20.00;99.90;;;;;;5003476;28;20196;-61
2022/09/14 04:08:42;;;;;;;;;;;19.90;99.90;;;;;;5000117;28;20822;-62
2022/09/14 04:11:13;;;;;;;;;;;20.10;99.90;;;;;;4999999;28;20320;-62
2022/09/14 04:13:41;;;;;;;;;;;20.10;99.90;;;;;;4997064;28;20269;-62
2022/09/14 04:16:09;;;;;;;;;;;20.10;99.90;;;;;;4999787;28;20461;-62
2022/09/14 04:18:37;;;;;;;;;;;20.10;99.90;;;;;;4997123;28;20316;-62
2022/09/14 04:21:06;;;;;;;;;;;20.10;99.90;;;;;;4996362;28;20257;-61
2022/09/14 04:23:35;;;;;;;;;;;20.10;99.90;;;;;;4998406;28;25177;-62
2022/09/14 04:26:26;;;;;;;;;;;20.10;99.90;;;;;;4997390;28;20807;-62
2022/09/14 04:28:54;;;;;;;;;;;20.10;99.90;;;;;;4996041;28;20720;-61
2022/09/14 04:31:22;;;;;;;;;;;20.10;99.90;;;;;;4995075;28;20236;-61
2022/09/14 04:33:50;;;;;;;;;;;20.10;99.90;;;;;;4997380;28;20778;-61
2022/09/14 04:36:20;;;;;;;;;;;20.00;99.90;;;;;;4996151;28;20246;-61
2022/09/14 04:38:48;;;;;;;;;;;20.00;99.90;;;;;;4997821;28;20212;-62
2022/09/14 04:41:17;;;;;;;;;;;19.80;99.90;;;;;;4995611;28;20207;-62
2022/09/14 04:43:48;;;;;;;;;;;19.90;99.90;;;;;;4998516;28;20312;-62
2022/09/14 04:46:17;;;;;;;;;;;19.90;99.90;;;;;;4996734;28;20302;-62
2022/09/14 04:48:44;;;;;;;;;;;19.90;99.90;;;;;;4998466;28;21565;-61
2022/09/14 04:51:15;;;;;;;;;;;19.90;99.90;;;;;;4995223;28;20294;-62
2022/09/14 04:53:43;;;;;;;;;;;19.90;99.90;;;;;;4998156;28;20223;-62
2022/09/14 04:56:12;;;;;;;;;;;19.90;99.90;;;;;;4997886;28;21500;-62
2022/09/14 04:58:41;;;;;;;;;;;19.90;99.90;;;;;;4999535;28;20464;-61
2022/09/14 05:01:11;;;;;;;;;;;20.00;99.90;;;;;;4997615;28;20262;-61
2022/09/14 05:03:39;;;;;;;;;;;20.00;99.90;;;;;;4995580;28;20420;-61
2022/09/14 05:06:12;;;;;;;;;;;20.00;99.90;;;;;;4996071;28;20335;-62
2022/09/14 05:08:40;;;;;;;;;;;19.90;99.90;;;;;;4996069;28;20659;-61
2022/09/14 05:11:09;;;;;;;;;;;20.00;99.90;;;;;;4995947;28;21221;-61
2022/09/14 05:13:36;;;;;;;;;;;20.00;99.90;;;;;;4997819;28;21176;-62
2022/09/14 05:16:05;;;;;;;;;;;20.10;99.90;;;;;;4995332;28;20258;-61
2022/09/14 05:18:34;;;;;;;;;;;20.00;99.90;;;;;;4997277;28;20109;-62
2022/09/14 05:21:02;;;;;;;;;;;20.10;99.90;;;;;;4995839;28;25054;-62
2022/09/14 05:23:35;;;;;;;;;;;20.00;99.90;;;;;;4997138;28;20091;-61
2022/09/14 05:26:03;;;;;;;;;;;20.00;99.90;;;;;;4997158;28;20273;-62
2022/09/14 05:28:31;;;;;;;;;;;19.90;99.90;;;;;;4997216;28;20287;-61
2022/09/14 05:30:59;;;;;;;;;;;19.90;99.90;;;;;;4995613;28;20473;-61
2022/09/14 05:33:27;;;;;;;;;;;19.90;99.90;;;;;;4995076;28;20355;-61
2022/09/14 05:36:00;;;;;;;;;;;20.00;99.90;;;;;;4997312;28;20644;-60
2022/09/14 05:38:29;;;;;;;;;;;20.00;99.90;;;;;;4997662;28;20544;-61
2022/09/14 05:40:57;;;;;;;;;;;20.00;99.90;;;;;;4995669;28;20242;-60
2022/09/14 05:43:25;;;;;;;;;;;20.10;99.90;;;;;;4994874;28;20314;-61
2022/09/14 05:45:52;;;;;;;;;;;20.10;99.90;;;;;;4996471;28;20290;-61
2022/09/14 05:48:20;;;;;;;;;;;20.10;99.90;;;;;;4993725;28;20228;-61
2022/09/14 05:50:48;;;;;;;;;;;20.10;99.90;;;;;;4993535;28;20224;-61
2022/09/14 05:53:17;;;;;;;;;;;20.10;99.90;;;;;;4994764;28;21011;-61
2022/09/14 05:55:45;;;;;;;;;;;20.10;99.90;;;;;;4998288;28;20081;-60
2022/09/14 05:58:13;;;;;;;;;;;19.90;99.90;;;;;;4993726;28;20380;-62
2022/09/14 06:00:40;;;;;;;;;;;19.80;99.90;;;;;;4998355;28;25066;-61
2022/09/14 06:03:08;;;;;;;;;;;19.70;99.90;;;;;;4993718;28;20076;-61
2022/09/14 06:05:35;;;;;;;;;;;19.70;99.90;;;;;;4996593;28;20301;-62
2022/09/14 06:08:04;;;;;;;;;;;19.80;99.90;;;;;;4995651;28;20291;-62
2022/09/14 06:10:33;;;;;;;;;;;19.90;99.90;;;;;;4996474;28;20340;-62
2022/09/14 06:13:01;;;;;;;;;;;19.90;99.90;;;;;;4997214;28;20243;-61
2022/09/14 06:15:29;;;;;;;;;;;19.90;99.90;;;;;;4996766;28;25131;-63
2022/09/14 06:17:57;;;;;;;;;;;19.90;99.90;;;;;;4999021;28;20444;-62
2022/09/14 06:20:25;;;;;;;;;;;19.90;99.90;;;;;;4998243;28;20340;-62
2022/09/14 06:22:52;;;;;;;;;;;19.80;99.90;;;;;;4996036;28;20635;-62
2022/09/14 06:25:20;;;;;;;;;;;19.90;99.90;;;;;;4998139;28;20139;-61
2022/09/14 06:27:49;;;;;;;;;;;19.90;99.90;;;;;;4997486;28;20632;-61
2022/09/14 06:30:17;;;;;;;;;;;19.90;99.90;;;;;;4998671;28;20103;-62
2022/09/14 06:32:45;;;;;;;;;;;20.00;99.90;;;;;;4999016;28;20557;-62
2022/09/14 06:35:12;;;;;;;;;;;19.90;99.90;;;;;;5001337;28;20340;-62
2022/09/14 06:37:40;;;;;;;;;;;20.00;99.90;;;;;;4999039;28;21356;-62
2022/09/14 06:40:08;;;;;;;;;;;20.00;99.90;;;;;;4999522;28;21205;-63
2022/09/14 06:42:36;;;;;;;;;;;20.10;99.90;;;;;;4997543;28;25148;-62
2022/09/14 06:45:06;;;;;;;;;;;20.00;99.90;;;;;;4999579;28;20837;-62
2022/09/14 06:47:34;;;;;;;;;;;20.10;99.90;;;;;;5000160;28;20284;-62
2022/09/14 06:50:01;;;;;;;;;;;20.10;99.90;;;;;;5000327;28;20978;-63
2022/09/14 06:52:29;;;;;;;;;;;20.00;99.90;;;;;;4996753;28;20770;-62
2022/09/14 06:55:00;;;;;;;;;;;20.10;99.90;;;;;;4998664;28;20277;-62
2022/09/14 06:57:28;;;;;;;;;;;20.00;99.90;;;;;;4998163;28;25067;-62
2022/09/14 06:59:55;;;;;;;;;;;19.90;99.90;;;;;;4999467;28;20174;-61
2022/09/14 07:02:25;;;;;;;;;;;19.80;99.90;;;;;;4998025;28;20295;-61
2022/09/14 07:04:52;;;;;;;;;;;19.70;99.90;;;;;;4999766;28;25090;-62
2022/09/14 07:07:20;;;;;;;;;;;19.50;99.90;;;;;;4997126;28;20107;-62
2022/09/14 07:09:48;;;;;;;;;;;19.50;99.90;;;;;;5000363;28;20231;-62
2022/09/14 07:12:15;;;;;;;;;;;19.50;99.90;;;;;;4998697;28;20232;-61
2022/09/14 07:14:43;;;;;;;;;;;19.40;99.90;;;;;;4999993;28;21482;-61
2022/09/14 07:17:13;;;;;;;;;;;19.40;99.90;;;;;;4999176;28;20238;-61
2022/09/14 07:19:42;;;;;;;;;;;19.30;99.90;;;;;;4996961;28;20166;-61
2022/09/14 07:22:10;;;;;;;;;;;19.20;99.90;;;;;;4994365;28;20656;-62
2022/09/14 07:24:37;;;;;;;;;;;19.10;99.90;;;;;;4993947;28;25088;-62
2022/09/14 07:27:05;;;;;;;;;;;19.00;99.90;;;;;;4996393;28;20707;-62
2022/09/14 07:29:33;;;;;;;;;;;19.10;99.90;;;;;;4994543;28;20196;-62
2022/09/14 07:32:01;;;;;;;;;;;19.10;99.90;;;;;;4992406;28;25217;-62
2022/09/14 07:34:29;;;;;;;;;;;19.20;99.90;;;;;;4997705;28;20555;-61
2022/09/14 07:36:58;;;;;;;;;;;19.20;99.90;;;;;;4996837;28;20235;-63
2022/09/14 07:39:25;;;;;;;;;;;19.20;99.90;;;;;;4999065;28;20935;-62
2022/09/14 07:41:53;;;;;;;;;;;19.30;99.90;;;;;;4997434;28;20233;-61
2022/09/14 07:44:21;;;;;;;;;;;19.40;99.90;;;;;;4998330;28;20772;-62
2022/09/14 07:46:48;;;;;;;;;;;19.50;99.90;;;;;;4998596;28;20195;-61
2022/09/14 07:49:17;;;;;;;;;;;19.50;99.90;;;;;;4997764;28;25078;-61
2022/09/14 07:51:45;;;;;;;;;;;19.70;99.90;;;;;;4995646;28;20098;-63
2022/09/14 07:54:16;;;;;;;;;;;19.80;99.90;;;;;;4996329;28;20735;-62
2022/09/14 07:56:44;;;;;;;;;;;19.90;99.90;;;;;;4997218;28;25096;-61
2022/09/14 07:59:12;;;;;;;;;;;19.90;99.90;;;;;;4998978;28;21074;-62
2022/09/14 08:02:00;;;;;;;;;;;19.90;99.90;;;;;;4995985;28;20563;-62
2022/09/14 08:04:28;;;;;;;;;;;19.90;99.90;;;;;;4998349;28;20185;-62
2022/09/14 08:06:56;;;;;;;;;;;19.80;99.90;;;;;;4998235;28;20122;-61
2022/09/14 08:09:26;;;;;;;;;;;19.80;99.90;;;;;;4996427;28;20230;-61
2022/09/14 08:11:54;;;;;;;;;;;19.70;99.90;;;;;;4994229;28;20248;-61
2022/09/14 08:14:22;;;;;;;;;;;19.70;99.90;;;;;;4998964;28;20129;-62
2022/09/14 08:16:50;;;;;;;;;;;19.80;99.90;;;;;;4993311;28;25085;-62
2022/09/14 08:19:18;;;;;;;;;;;19.80;99.90;;;;;;4993035;28;20090;-61
2022/09/14 08:21:46;;;;;;;;;;;19.80;99.90;;;;;;4996124;28;20224;-62
2022/09/14 08:24:15;;;;;;;;;;;19.70;99.90;;;;;;4996936;28;20171;-61
2022/09/14 08:26:45;;;;;;;;;;;19.60;99.90;;;;;;4994458;28;20135;-61
2022/09/14 08:29:13;;;;;;;;;;;19.50;99.90;;;;;;4996447;28;20254;-62
2022/09/14 08:31:41;;;;;;;;;;;19.50;99.90;;;;;;4992542;28;20200;-61
2022/09/14 08:34:09;;;;;;;;;;;19.40;99.90;;;;;;4997639;28;20103;-62
2022/09/14 08:36:38;;;;;;;;;;;19.40;99.90;;;;;;4998483;28;25066;-61
2022/09/14 08:39:08;;;;;;;;;;;19.30;99.90;;;;;;4994400;28;20837;-61
2022/09/14 08:41:38;;;;;;;;;;;19.40;99.90;;;;;;4994567;28;20467;-61
2022/09/14 08:44:13;;;;;;;;;;;19.40;99.90;;;;;;4993446;28;20938;-62
2022/09/14 08:46:43;;;;;;;;;;;19.50;99.90;;;;;;4993673;28;20797;-61
2022/09/14 08:49:14;;;;;;;;;;;19.50;99.90;;;;;;4995288;28;20208;-61
2022/09/14 08:51:41;;;;;;;;;;;19.50;99.90;;;;;;4995293;28;20124;-62
2022/09/14 08:54:09;;;;;;;;;;;19.50;99.90;;;;;;4995130;28;20241;-61
2022/09/14 08:56:40;;;;;;;;;;;19.50;99.90;;;;;;4996274;28;20178;-61
2022/09/14 08:59:17;;;;;;;;;;;19.60;99.90;;;;;;4994619;28;21378;-61
2022/09/14 09:01:50;;;;;;;;;;;19.50;99.90;;;;;;4991563;28;20727;-61
2022/09/14 09:04:42;;;;;;;;;;;19.50;99.90;;;;;;4994532;28;20354;-61
2022/09/14 09:07:13;;;;;;;;;;;19.50;99.90;;;;;;4977031;28;20611;-60
2022/09/14 09:09:43;;;;;;;;;;;19.50;99.90;;;;;;4994759;28;20172;-61
2022/09/14 09:12:13;;;;;;;;;;;19.40;99.90;;;;;;4994179;28;20232;-63
2022/09/14 09:14:43;;;;;;;;;;;19.30;99.90;;;;;;4993015;28;20088;-61
2022/09/14 09:17:13;;;;;;;;;;;19.10;99.90;;;;;;4993745;28;20491;-60
2022/09/14 09:19:52;;;;;;;;;;;19.10;99.90;;;;;;4993110;28;20320;-61
2022/09/14 09:22:21;;;;;;;;;;;19.10;99.90;;;;;;4991753;28;20210;-62
2022/09/14 09:24:51;;;;;;;;;;;19.00;99.90;;;;;;4996366;28;20175;-63
2022/09/14 09:27:18;;;;;;;;;;;19.10;99.90;;;;;;4996349;28;20234;-61
2022/09/14 09:29:48;;;;;;;;;;;19.00;99.90;;;;;;4994627;28;20117;-61
2022/09/14 09:32:17;;;;;;;;;;;19.10;99.90;;;;;;4990574;28;25086;-60
2022/09/14 09:34:45;;;;;;;;;;;19.20;99.90;;;;;;4994513;28;20085;-61
2022/09/14 09:37:14;;;;;;;;;;;19.30;99.90;;;;;;4992691;28;20709;-61
2022/09/14 09:39:42;;;;;;;;;;;19.40;99.90;;;;;;4995136;28;20841;-60
2022/09/14 09:42:13;;;;;;;;;;;19.40;99.90;;;;;;4992257;28;20740;-61
2022/09/14 09:44:55;;;;;;;;;;;19.50;99.90;;;;;;4995715;28;21004;-61
2022/09/14 09:47:30;;;;;;;;;;;19.50;99.90;;;;;;4997512;28;20396;-61
2022/09/14 09:49:59;;;;;;;;;;;19.50;99.90;;;;;;4994758;28;20222;-64
2022/09/14 09:52:27;;;;;;;;;;;19.50;99.90;;;;;;4990380;28;20203;-60
2022/09/14 09:54:55;;;;;;;;;;;19.50;99.90;;;;;;4993006;28;20281;-61
2022/09/14 09:57:27;;;;;;;;;;;19.50;99.90;;;;;;4994504;28;20232;-60
2022/09/14 10:00:08;;;;;;;;;;;19.30;99.90;;;;;;4993645;28;20134;-61
2022/09/14 10:02:36;;;;;;;;;;;19.30;99.90;;;;;;4992139;28;25079;-63
2022/09/14 10:05:06;;;;;;;;;;;19.30;99.90;;;;;;4992968;28;20080;-61
2022/09/14 10:07:35;;;;;;;;;;;19.40;99.90;;;;;;4991453;28;20792;-60
2022/09/14 10:10:04;;;;;;;;;;;19.30;99.90;;;;;;4992229;28;20089;-61
2022/09/14 10:12:32;;;;;;;;;;;19.40;99.90;;;;;;4991999;28;20358;-63
2022/09/14 10:15:07;;;;;;;;;;;19.40;99.90;;;;;;4995225;28;25086;-61
2022/09/14 10:17:35;;;;;;;;;;;19.50;99.90;;;;;;4996646;28;20112;-61
2022/09/14 10:20:03;;;;;;;;;;;19.60;99.90;;;;;;4995069;28;20115;-60
2022/09/14 10:22:31;;;;;;;;;;;19.70;99.90;;;;;;4989429;28;25092;-61
2022/09/14 10:25:00;;;;;;;;;;;19.80;99.90;;;;;;4994616;28;20352;-61
2022/09/14 10:27:38;;;;;;;;;;;19.90;99.90;;;;;;4992730;28;20162;-61
2022/09/14 10:30:11;;;;;;;;;;;20.00;99.90;;;;;;4992595;28;20259;-61
2022/09/14 10:32:40;;;;;;;;;;;20.10;99.90;;;;;;4991827;28;20273;-62
2022/09/14 10:35:11;;;;;;;;;;;20.20;99.90;;;;;;4994949;28;20227;-61
2022/09/14 10:37:42;;;;;;;;;;;20.30;99.90;;;;;;4993674;28;20238;-62
2022/09/14 10:40:15;;;;;;;;;;;20.20;99.90;;;;;;4991899;28;20219;-61
2022/09/14 10:42:48;;;;;;;;;;;20.10;99.90;;;;;;4996469;28;20501;-61
2022/09/14 10:45:21;;;;;;;;;;;20.10;99.90;;;;;;4995531;28;20219;-60
2022/09/14 10:48:05;;;;;;;;;;;20.00;99.90;;;;;;4996216;28;20226;-61
2022/09/14 10:50:42;;;;;;;;;;;20.00;99.90;;;;;;4995824;28;20196;-62
2022/09/14 10:53:18;;;;;;;;;;;20.10;99.90;;;;;;4998721;28;20211;-62
2022/09/14 10:55:52;;;;;;;;;;;20.10;99.90;;;;;;5000025;28;20856;-61
2022/09/14 10:58:28;;;;;;;;;;;20.00;99.90;;;;;;4999333;28;20233;-62
2022/09/14 11:01:03;;;;;;;;;;;20.00;99.90;;;;;;4999793;28;20265;-62
2022/09/14 11:03:39;;;;;;;;;;;19.90;99.90;;;;;;4998370;28;20215;-62
2022/09/14 11:06:19;;;;;;;;;;;20.00;99.90;;;;;;4999837;28;20286;-61
2022/09/14 11:08:50;;;;;;;;;;;20.00;99.90;;;;;;4999700;28;20147;-62
2022/09/14 11:11:26;;;;;;;;;;;20.10;99.90;;;;;;4997499;28;20276;-61
2022/09/14 11:14:06;;;;;;;;;;;20.20;99.90;;;;;;4998528;28;20220;-61
2022/09/14 11:16:49;;;;;;;;;;;20.20;99.90;;;;;;4997975;28;20139;-61
2022/09/14 11:19:20;;;;;;;;;;;20.20;99.90;;;;;;4998642;28;25073;-61
2022/09/14 11:21:50;;;;;;;;;;;20.20;99.90;;;;;;4997826;28;21029;-61
2022/09/14 11:24:20;;;;;;;;;;;20.20;99.90;;;;;;5000064;28;20131;-62
2022/09/14 11:26:58;;;;;;;;;;;20.10;99.90;;;;;;4997609;28;20243;-62
2022/09/14 11:29:27;;;;;;;;;;;20.10;99.90;;;;;;4998286;28;20212;-61
2022/09/14 11:31:58;;;;;;;;;;;20.20;99.90;;;;;;4994819;28;21404;-61
2022/09/14 11:34:53;;;;;;;;;;;20.30;99.90;;;;;;4996110;28;20461;-61
2022/09/14 11:37:24;;;;;;;;;;;20.30;99.90;;;;;;4994756;28;21958;-61
2022/09/14 11:39:56;;;;;;;;;;;20.50;99.90;;;;;;4993139;28;20316;-61
2022/09/14 11:42:26;;;;;;;;;;;20.50;99.90;;;;;;4997775;28;21086;-61
2022/09/14 11:44:57;;;;;;;;;;;20.80;99.90;;;;;;4997238;28;20216;-61
2022/09/14 11:47:28;;;;;;;;;;;21.00;99.90;;;;;;4995270;28;20342;-62
2022/09/14 11:49:58;;;;;;;;;;;21.20;99.90;;;;;;4995649;28;20218;-61
2022/09/14 11:52:27;;;;;;;;;;;21.20;99.90;;;;;;4991325;28;20199;-62
2022/09/14 11:54:54;;;;;;;;;;;21.10;99.90;;;;;;4997691;28;20248;-62
2022/09/14 11:57:23;;;;;;;;;;;21.20;99.90;;;;;;4999030;28;20554;-62
2022/09/14 11:59:52;;;;;;;;;;;21.20;99.90;;;;;;4998758;28;20627;-61
2022/09/14 12:02:50;;;;;;;;;;;21.10;99.90;;;;;;4993809;28;20212;-61
2022/09/14 12:05:30;;;;;;;;;;;21.10;99.90;;;;;;4995230;28;20325;-61
2022/09/14 12:07:59;;;;;;;;;;;21.30;99.90;;;;;;4993083;28;20102;-61
2022/09/14 12:10:28;;;;;;;;;;;21.40;99.90;;;;;;5000100;28;20221;-62
2022/09/14 12:12:57;;;;;;;;;;;21.50;99.90;;;;;;4993613;28;20213;-62
2022/09/14 12:15:34;;;;;;;;;;;21.50;99.90;;;;;;4993580;28;20726;-62
2022/09/14 12:18:19;;;;;;;;;;;21.70;99.90;;;;;;4993282;28;20336;-62
2022/09/14 12:20:51;;;;;;;;;;;21.80;99.90;;;;;;4994979;28;20770;-62
2022/09/14 12:23:22;;;;;;;;;;;21.90;99.90;;;;;;4992920;28;20239;-64
2022/09/14 12:25:54;;;;;;;;;;;22.00;99.90;;;;;;4994609;28;20360;-62
2022/09/14 12:28:37;;;;;;;;;;;22.00;99.90;;;;;;4993940;28;20076;-63
2022/09/14 12:31:12;;;;;;;;;;;21.90;99.90;;;;;;4994132;28;20833;-62
2022/09/14 12:33:44;;;;;;;;;;;21.80;99.90;;;;;;4992457;28;20365;-63
2022/09/14 12:36:37;;;;;;;;;;;21.70;99.90;;;;;;4994163;28;20837;-62
2022/09/14 12:39:17;;;;;;;;;;;21.60;99.90;;;;;;4997568;28;20233;-64
2022/09/14 12:42:05;;;;;;;;;;;21.50;99.90;;;;;;4997122;28;20174;-62
2022/09/14 12:44:35;;;;;;;;;;;21.40;99.90;;;;;;4966402;28;20247;-64
2022/09/14 12:47:22;;;;;;;;;;;21.30;99.90;;;;;;4995129;28;20665;-62
2022/09/14 12:49:50;;;;;;;;;;;21.20;99.90;;;;;;4996566;28;25068;-63
2022/09/14 12:52:28;;;;;;;;;;;21.20;99.90;;;;;;4994301;28;21034;-63
2022/09/14 12:55:06;;;;;;;;;;;21.20;99.90;;;;;;4994543;28;20481;-62
2022/09/14 12:57:39;;;;;;;;;;;21.30;99.90;;;;;;4993926;28;20231;-64
2022/09/14 13:00:12;;;;;;;;;;;21.30;99.90;;;;;;4993159;28;20164;-63
2022/09/14 13:03:01;;;;;;;;;;;21.30;99.90;;;;;;4990846;28;20435;-63
2022/09/14 13:05:29;;;;;;;;;;;21.40;99.90;;;;;;4987910;28;20084;-63
2022/09/14 13:07:57;;;;;;;;;;;21.40;99.90;;;;;;4991632;28;20721;-61
2022/09/14 13:10:31;;;;;;;;;;;21.40;99.90;;;;;;4994394;28;20683;-62
2022/09/14 13:13:00;;;;;;;;;;;21.40;99.90;;;;;;4993102;28;21250;-61
2022/09/14 13:15:31;;;;;;;;;;;21.50;99.90;;;;;;4992562;28;20228;-61
2022/09/14 13:17:59;;;;;;;;;;;21.50;99.90;;;;;;4994656;28;20157;-62
2022/09/14 13:20:28;;;;;;;;;;;21.50;99.90;;;;;;4992113;28;25082;-61
2022/09/14 13:22:55;;;;;;;;;;;21.50;99.90;;;;;;4991737;28;21192;-62
2022/09/14 13:25:31;;;;;;;;;;;21.50;99.90;;;;;;4993597;28;20113;-61
2022/09/14 13:27:59;;;;;;;;;;;21.50;99.90;;;;;;4992556;28;25087;-61
2022/09/14 13:30:28;;;;;;;;;;;21.50;99.90;;;;;;4992691;28;20161;-61
2022/09/14 13:32:57;;;;;;;;;;;21.40;99.90;;;;;;4991475;28;20204;-62
2022/09/14 13:35:28;;;;;;;;;;;21.40;99.90;;;;;;4991855;28;20770;-60
2022/09/14 13:37:56;;;;;;;;;;;21.40;99.90;;;;;;4993633;28;20210;-62
2022/09/14 13:40:27;;;;;;;;;;;21.40;99.90;;;;;;4995427;28;20296;-62
2022/09/14 13:42:57;;;;;;;;;;;21.40;99.90;;;;;;4997549;28;20211;-62
2022/09/14 13:45:25;;;;;;;;;;;21.40;99.90;;;;;;4997630;28;20335;-61
2022/09/14 13:47:53;;;;;;;;;;;21.30;99.90;;;;;;4998383;28;20237;-62
2022/09/14 13:50:22;;;;;;;;;;;21.30;99.90;;;;;;4998249;28;20211;-61
2022/09/14 13:52:50;;;;;;;;;;;21.20;99.90;;;;;;4996951;28;20205;-62
2022/09/14 13:55:43;;;;;;;;;;;21.10;99.90;;;;;;4998470;28;20205;-62
2022/09/14 13:58:22;;;;;;;;;;;21.10;99.90;;;;;;4999351;28;20225;-61
2022/09/14 14:00:52;;;;;;;;;;;21.10;99.90;;;;;;5000378;28;20211;-62
2022/09/14 14:03:26;;;;;;;;;;;21.20;99.90;;;;;;4997811;28;20679;-62
2022/09/14 14:05:54;;;;;;;;;;;21.10;99.90;;;;;;4997934;28;20204;-62
2022/09/14 14:08:27;;;;;;;;;;;21.20;99.90;;;;;;4998215;28;20201;-62
2022/09/14 14:10:55;;;;;;;;;;;21.10;99.90;;;;;;4999345;28;20082;-62
2022/09/14 14:13:27;;;;;;;;;;;21.10;99.90;;;;;;4997672;28;20610;-62
2022/09/14 14:16:10;;;;;;;;;;;21.00;99.90;;;;;;4999743;28;20216;-62
2022/09/14 14:18:41;;;;;;;;;;;21.00;99.90;;;;;;5002623;28;20126;-63
2022/09/14 14:21:14;;;;;;;;;;;21.10;99.90;;;;;;5001448;28;20250;-61
2022/09/14 14:23:42;;;;;;;;;;;21.00;99.90;;;;;;5003224;28;21313;-61
2022/09/14 14:26:29;;;;;;;;;;;21.00;99.90;;;;;;5002224;28;25087;-62
2022/09/14 14:29:06;;;;;;;;;;;20.90;99.90;;;;;;5003167;28;20084;-62
2022/09/14 14:31:34;;;;;;;;;;;20.90;99.90;;;;;;5000798;28;20672;-62
2022/09/14 14:34:10;;;;;;;;;;;21.00;99.90;;;;;;5003057;28;20588;-62
2022/09/14 14:36:37;;;;;;;;;;;20.90;99.90;;;;;;5003078;28;20217;-62